sensor_id;sensor_type;location;lat;lon;timestamp;temperature;humidity
11989;DHT22;6054;50.966;7.094;2023-01-20T00:01:02;9.20;57.90
11989;DHT22;6054;50.966;7.094;2023-01-20T00:03:30;9.20;58.10
11989;DHT22;6054;50.966;7.094;2023-01-20T00:05:57;9.20;58.20
11989;DHT22;6054;50.966;7.094;2023-01-20T00:08:24;9.10;58.00
11989;DHT22;6054;50.966;7.094;2023-01-20T00:10:50;9.20;58.00
11989;DHT22;6054;50.966;7.094;2023-01-20T00:13:17;9.10;58.00
11989;DHT22;6054;50.966;7.094;2023-01-20T00:15:44;9.10;57.80
11989;DHT22;6054;50.966;7.094;2023-01-20T00:18:11;9.10;57.60
11989;DHT22;6054;50.966;7.094;2023-01-20T00:20:39;9.10;57.80
11989;DHT22;6054;50.966;7.094;2023-01-20T00:23:06;9.10;57.90
11989;DHT22;6054;50.966;7.094;2023-01-20T00:25:34;9.10;57.80
11989;DHT22;6054;50.966;7.094;2023-01-20T00:28:01;9.10;58.00
11989;DHT22;6054;50.966;7.094;2023-01-20T00:30:28;9.10;57.90
11989;DHT22;6054;50.966;7.094;2023-01-20T00:32:55;9.10;58.00
11989;DHT22;6054;50.966;7.094;2023-01-20T00:35:22;9.10;57.90
11989;DHT22;6054;50.966;7.094;2023-01-20T00:37:50;9.10;57.90
11989;DHT22;6054;50.966;7.094;2023-01-20T00:40:17;9.10;57.80
11989;DHT22;6054;50.966;7.094;2023-01-20T00:42:43;9.00;57.50
11989;DHT22;6054;50.966;7.094;2023-01-20T00:45:10;9.00;57.70
11989;DHT22;6054;50.966;7.094;2023-01-20T00:47:37;9.10;57.90
11989;DHT22;6054;50.966;7.094;2023-01-20T00:50:04;9.10;57.90
11989;DHT22;6054;50.966;7.094;2023-01-20T00:52:31;9.10;58.00
11989;DHT22;6054;50.966;7.094;2023-01-20T00:54:59;9.30;58.10
11989;DHT22;6054;50.966;7.094;2023-01-20T00:57:26;9.30;58.00
11989;DHT22;6054;50.966;7.094;2023-01-20T00:59:53;9.00;57.80
11989;DHT22;6054;50.966;7.094;2023-01-20T01:02:20;9.00;57.80
11989;DHT22;6054;50.966;7.094;2023-01-20T01:04:48;9.00;57.80
11989;DHT22;6054;50.966;7.094;2023-01-20T01:07:16;9.00;58.10
11989;DHT22;6054;50.966;7.094;2023-01-20T01:09:43;9.00;58.00
11989;DHT22;6054;50.966;7.094;2023-01-20T01:12:11;9.00;57.90
11989;DHT22;6054;50.966;7.094;2023-01-20T01:14:38;9.00;57.90
11989;DHT22;6054;50.966;7.094;2023-01-20T01:17:04;9.00;57.80
11989;DHT22;6054;50.966;7.094;2023-01-20T01:19:31;9.00;57.80
11989;DHT22;6054;50.966;7.094;2023-01-20T01:21:58;9.00;57.80
11989;DHT22;6054;50.966;7.094;2023-01-20T01:24:25;9.00;57.90
11989;DHT22;6054;50.966;7.094;2023-01-20T01:26:52;9.10;58.10
11989;DHT22;6054;50.966;7.094;2023-01-20T01:29:20;9.00;58.20
11989;DHT22;6054;50.966;7.094;2023-01-20T01:31:47;9.00;57.80
11989;DHT22;6054;50.966;7.094;2023-01-20T01:34:14;9.00;58.00
11989;DHT22;6054;50.966;7.094;2023-01-20T01:36:40;9.00;58.00
11989;DHT22;6054;50.966;7.094;2023-01-20T01:39:07;9.00;58.10
11989;DHT22;6054;50.966;7.094;2023-01-20T01:41:34;9.00;58.00
11989;DHT22;6054;50.966;7.094;2023-01-20T01:44:04;9.00;58.10
11989;DHT22;6054;50.966;7.094;2023-01-20T01:46:33;9.00;58.40
11989;DHT22;6054;50.966;7.094;2023-01-20T01:49:02;9.00;57.80
11989;DHT22;6054;50.966;7.094;2023-01-20T01:51:32;9.00;58.00
11989;DHT22;6054;50.966;7.094;2023-01-20T01:54:05;9.00;58.00
11989;DHT22;6054;50.966;7.094;2023-01-20T01:56:34;9.00;57.80
11989;DHT22;6054;50.966;7.094;2023-01-20T01:59:01;9.00;57.40
11989;DHT22;6054;50.966;7.094;2023-01-20T02:01:29;8.90;57.60
11989;DHT22;6054;50.966;7.094;2023-01-20T02:04:01;8.90;57.60
11989;DHT22;6054;50.966;7.094;2023-01-20T02:06:32;8.90;57.60
11989;DHT22;6054;50.966;7.094;2023-01-20T02:09:00;8.90;57.50
11989;DHT22;6054;50.966;7.094;2023-01-20T02:11:28;8.80;57.40
11989;DHT22;6054;50.966;7.094;2023-01-20T02:13:56;8.80;57.30
11989;DHT22;6054;50.966;7.094;2023-01-20T02:16:29;8.80;57.30
11989;DHT22;6054;50.966;7.094;2023-01-20T02:19:12;8.90;57.80
11989;DHT22;6054;50.966;7.094;2023-01-20T02:22:04;8.80;57.90
11989;DHT22;6054;50.966;7.094;2023-01-20T02:28:09;8.80;58.10
11989;DHT22;6054;50.966;7.094;2023-01-20T02:31:17;8.80;58.20
11989;DHT22;6054;50.966;7.094;2023-01-20T02:33:55;8.80;58.30
11989;DHT22;6054;50.966;7.094;2023-01-20T02:36:26;8.80;58.10
11989;DHT22;6054;50.966;7.094;2023-01-20T02:38:56;9.20;58.60
11989;DHT22;6054;50.966;7.094;2023-01-20T02:41:34;8.80;58.20
11989;DHT22;6054;50.966;7.094;2023-01-20T02:44:09;8.80;58.10
11989;DHT22;6054;50.966;7.094;2023-01-20T02:46:44;8.80;58.10
11989;DHT22;6054;50.966;7.094;2023-01-20T02:49:18;8.80;58.10
11989;DHT22;6054;50.966;7.094;2023-01-20T02:51:49;8.80;58.20
11989;DHT22;6054;50.966;7.094;2023-01-20T02:54:19;8.90;58.30
11989;DHT22;6054;50.966;7.094;2023-01-20T02:56:47;8.90;58.20
11989;DHT22;6054;50.966;7.094;2023-01-20T02:59:18;9.00;58.20
11989;DHT22;6054;50.966;7.094;2023-01-20T03:01:49;8.90;58.00
11989;DHT22;6054;50.966;7.094;2023-01-20T03:04:21;8.90;58.10
11989;DHT22;6054;50.966;7.094;2023-01-20T03:06:51;8.90;58.10
11989;DHT22;6054;50.966;7.094;2023-01-20T03:09:23;8.90;58.10
11989;DHT22;6054;50.966;7.094;2023-01-20T03:11:55;8.90;58.10
11989;DHT22;6054;50.966;7.094;2023-01-20T03:14:22;8.90;58.20
11989;DHT22;6054;50.966;7.094;2023-01-20T03:16:49;8.90;57.90
11989;DHT22;6054;50.966;7.094;2023-01-20T03:19:18;8.90;58.00
11989;DHT22;6054;50.966;7.094;2023-01-20T03:21:45;9.30;58.50
11989;DHT22;6054;50.966;7.094;2023-01-20T03:24:12;8.90;57.90
11989;DHT22;6054;50.966;7.094;2023-01-20T03:26:40;8.90;57.80
11989;DHT22;6054;50.966;7.094;2023-01-20T03:29:08;9.00;58.40
11989;DHT22;6054;50.966;7.094;2023-01-20T03:31:39;9.00;58.20
11989;DHT22;6054;50.966;7.094;2023-01-20T03:34:08;9.20;58.40
11989;DHT22;6054;50.966;7.094;2023-01-20T03:36:39;9.00;58.20
11989;DHT22;6054;50.966;7.094;2023-01-20T03:39:06;9.00;58.20
11989;DHT22;6054;50.966;7.094;2023-01-20T03:41:37;9.00;57.80
11989;DHT22;6054;50.966;7.094;2023-01-20T03:44:10;9.00;58.20
11989;DHT22;6054;50.966;7.094;2023-01-20T03:46:42;9.00;58.20
11989;DHT22;6054;50.966;7.094;2023-01-20T03:49:16;9.00;58.20
11989;DHT22;6054;50.966;7.094;2023-01-20T03:51:53;9.00;58.30
11989;DHT22;6054;50.966;7.094;2023-01-20T03:54:26;9.00;58.80
11989;DHT22;6054;50.966;7.094;2023-01-20T03:57:00;9.00;58.30
11989;DHT22;6054;50.966;7.094;2023-01-20T03:59:31;9.00;58.10
11989;DHT22;6054;50.966;7.094;2023-01-20T04:02:02;9.00;58.10
11989;DHT22;6054;50.966;7.094;2023-01-20T04:04:32;9.00;57.90
11989;DHT22;6054;50.966;7.094;2023-01-20T04:07:03;9.00;57.90
11989;DHT22;6054;50.966;7.094;2023-01-20T04:09:34;9.00;57.80
11989;DHT22;6054;50.966;7.094;2023-01-20T04:12:02;9.00;57.80
11989;DHT22;6054;50.966;7.094;2023-01-20T04:14:29;9.00;57.50
11989;DHT22;6054;50.966;7.094;2023-01-20T04:16:57;8.90;57.30
11989;DHT22;6054;50.966;7.094;2023-01-20T04:19:25;8.90;57.50
11989;DHT22;6054;50.966;7.094;2023-01-20T04:21:56;8.90;57.90
11989;DHT22;6054;50.966;7.094;2023-01-20T04:24:31;9.20;57.80
11989;DHT22;6054;50.966;7.094;2023-01-20T04:27:01;8.90;57.60
11989;DHT22;6054;50.966;7.094;2023-01-20T04:29:27;8.90;57.40
11989;DHT22;6054;50.966;7.094;2023-01-20T04:31:57;8.90;57.50
11989;DHT22;6054;50.966;7.094;2023-01-20T04:34:24;8.90;57.70
11989;DHT22;6054;50.966;7.094;2023-01-20T04:36:51;8.90;57.50
11989;DHT22;6054;50.966;7.094;2023-01-20T04:39:18;8.90;57.60
11989;DHT22;6054;50.966;7.094;2023-01-20T04:41:47;8.90;57.60
11989;DHT22;6054;50.966;7.094;2023-01-20T04:44:13;8.90;57.60
11989;DHT22;6054;50.966;7.094;2023-01-20T04:46:40;8.90;57.80
11989;DHT22;6054;50.966;7.094;2023-01-20T04:49:07;9.00;57.80
11989;DHT22;6054;50.966;7.094;2023-01-20T04:51:34;9.00;57.80
11989;DHT22;6054;50.966;7.094;2023-01-20T04:54:01;9.00;57.80
11989;DHT22;6054;50.966;7.094;2023-01-20T04:56:28;9.00;57.80
11989;DHT22;6054;50.966;7.094;2023-01-20T04:58:56;9.00;57.80
11989;DHT22;6054;50.966;7.094;2023-01-20T05:01:23;9.00;58.60
11989;DHT22;6054;50.966;7.094;2023-01-20T05:03:50;9.00;57.80
11989;DHT22;6054;50.966;7.094;2023-01-20T05:06:16;9.00;57.80
11989;DHT22;6054;50.966;7.094;2023-01-20T05:08:43;9.00;57.60
11989;DHT22;6054;50.966;7.094;2023-01-20T05:11:10;9.00;57.60
11989;DHT22;6054;50.966;7.094;2023-01-20T05:13:37;9.00;57.50
11989;DHT22;6054;50.966;7.094;2023-01-20T05:16:06;9.00;57.60
11989;DHT22;6054;50.966;7.094;2023-01-20T05:18:34;9.00;57.70
11989;DHT22;6054;50.966;7.094;2023-01-20T05:21:02;9.20;57.50
11989;DHT22;6054;50.966;7.094;2023-01-20T05:23:29;9.30;58.00
11989;DHT22;6054;50.966;7.094;2023-01-20T05:25:56;9.00;57.40
11989;DHT22;6054;50.966;7.094;2023-01-20T05:28:22;9.00;57.30
11989;DHT22;6054;50.966;7.094;2023-01-20T05:30:49;9.00;57.60
11989;DHT22;6054;50.966;7.094;2023-01-20T05:33:17;9.00;57.50
11989;DHT22;6054;50.966;7.094;2023-01-20T05:35:44;9.00;57.60
11989;DHT22;6054;50.966;7.094;2023-01-20T05:38:11;9.00;57.40
11989;DHT22;6054;50.966;7.094;2023-01-20T05:40:38;9.00;57.50
11989;DHT22;6054;50.966;7.094;2023-01-20T05:43:04;9.00;57.40
11989;DHT22;6054;50.966;7.094;2023-01-20T05:45:31;9.00;57.30
11989;DHT22;6054;50.966;7.094;2023-01-20T05:47:58;9.00;57.60
11989;DHT22;6054;50.966;7.094;2023-01-20T05:50:28;9.00;58.00
11989;DHT22;6054;50.966;7.094;2023-01-20T05:52:54;9.00;58.00
11989;DHT22;6054;50.966;7.094;2023-01-20T05:55:21;9.10;57.70
11989;DHT22;6054;50.966;7.094;2023-01-20T05:57:50;9.00;57.70
11989;DHT22;6054;50.966;7.094;2023-01-20T06:00:18;9.00;57.30
11989;DHT22;6054;50.966;7.094;2023-01-20T06:02:45;9.10;57.80
11989;DHT22;6054;50.966;7.094;2023-01-20T06:05:11;9.10;57.50
11989;DHT22;6054;50.966;7.094;2023-01-20T06:07:39;9.10;57.40
11989;DHT22;6054;50.966;7.094;2023-01-20T06:10:07;9.50;57.60
11989;DHT22;6054;50.966;7.094;2023-01-20T06:12:34;9.00;57.60
11989;DHT22;6054;50.966;7.094;2023-01-20T06:15:00;9.00;57.10
11989;DHT22;6054;50.966;7.094;2023-01-20T06:17:27;9.00;57.10
11989;DHT22;6054;50.966;7.094;2023-01-20T06:19:54;9.00;57.10
11989;DHT22;6054;50.966;7.094;2023-01-20T06:22:21;8.90;56.80
11989;DHT22;6054;50.966;7.094;2023-01-20T06:24:49;8.90;56.90
11989;DHT22;6054;50.966;7.094;2023-01-20T06:27:16;8.90;57.00
11989;DHT22;6054;50.966;7.094;2023-01-20T06:29:43;8.90;57.10
11989;DHT22;6054;50.966;7.094;2023-01-20T06:32:10;8.90;57.00
11989;DHT22;6054;50.966;7.094;2023-01-20T06:34:36;8.90;57.10
11989;DHT22;6054;50.966;7.094;2023-01-20T06:37:03;8.90;57.10
11989;DHT22;6054;50.966;7.094;2023-01-20T06:39:30;8.90;56.90
11989;DHT22;6054;50.966;7.094;2023-01-20T06:41:59;8.90;57.20
11989;DHT22;6054;50.966;7.094;2023-01-20T06:44:41;9.30;57.80
11989;DHT22;6054;50.966;7.094;2023-01-20T06:47:07;8.90;57.30
11989;DHT22;6054;50.966;7.094;2023-01-20T06:49:35;9.00;57.60
11989;DHT22;6054;50.966;7.094;2023-01-20T06:52:02;9.00;57.80
11989;DHT22;6054;50.966;7.094;2023-01-20T06:54:29;9.00;57.10
11989;DHT22;6054;50.966;7.094;2023-01-20T06:56:55;9.00;57.30
11989;DHT22;6054;50.966;7.094;2023-01-20T06:59:23;9.00;57.10
11989;DHT22;6054;50.966;7.094;2023-01-20T07:01:50;9.00;56.90
11989;DHT22;6054;50.966;7.094;2023-01-20T07:04:18;9.00;57.10
11989;DHT22;6054;50.966;7.094;2023-01-20T07:06:44;8.90;56.50
11989;DHT22;6054;50.966;7.094;2023-01-20T07:09:11;8.90;56.70
11989;DHT22;6054;50.966;7.094;2023-01-20T07:11:39;8.90;56.80
11989;DHT22;6054;50.966;7.094;2023-01-20T07:14:06;8.90;56.90
11989;DHT22;6054;50.966;7.094;2023-01-20T07:16:35;8.90;57.00
11989;DHT22;6054;50.966;7.094;2023-01-20T07:19:02;8.90;56.70
11989;DHT22;6054;50.966;7.094;2023-01-20T07:21:29;8.90;57.10
11989;DHT22;6054;50.966;7.094;2023-01-20T07:23:59;8.90;56.80
11989;DHT22;6054;50.966;7.094;2023-01-20T07:26:26;8.90;57.10
11989;DHT22;6054;50.966;7.094;2023-01-20T07:28:53;8.90;56.70
11989;DHT22;6054;50.966;7.094;2023-01-20T07:31:21;8.90;56.50
11989;DHT22;6054;50.966;7.094;2023-01-20T07:33:50;8.90;57.00
11989;DHT22;6054;50.966;7.094;2023-01-20T07:36:17;8.90;56.70
11989;DHT22;6054;50.966;7.094;2023-01-20T07:38:46;8.90;56.80
11989;DHT22;6054;50.966;7.094;2023-01-20T07:41:13;8.90;56.80
11989;DHT22;6054;50.966;7.094;2023-01-20T07:43:41;8.90;56.70
11989;DHT22;6054;50.966;7.094;2023-01-20T07:46:08;8.90;56.90
11989;DHT22;6054;50.966;7.094;2023-01-20T07:48:35;8.90;56.50
11989;DHT22;6054;50.966;7.094;2023-01-20T07:51:05;9.00;56.50
11989;DHT22;6054;50.966;7.094;2023-01-20T07:53:33;8.90;56.70
11989;DHT22;6054;50.966;7.094;2023-01-20T07:56:01;8.90;57.00
11989;DHT22;6054;50.966;7.094;2023-01-20T07:58:27;8.90;56.90
11989;DHT22;6054;50.966;7.094;2023-01-20T08:00:54;8.90;56.60
11989;DHT22;6054;50.966;7.094;2023-01-20T08:03:21;8.90;56.50
11989;DHT22;6054;50.966;7.094;2023-01-20T08:05:48;8.90;56.00
11989;DHT22;6054;50.966;7.094;2023-01-20T08:08:16;8.90;56.50
11989;DHT22;6054;50.966;7.094;2023-01-20T08:10:43;8.90;56.40
11989;DHT22;6054;50.966;7.094;2023-01-20T08:13:12;8.90;56.40
11989;DHT22;6054;50.966;7.094;2023-01-20T08:15:38;8.90;56.30
11989;DHT22;6054;50.966;7.094;2023-01-20T08:18:05;8.90;56.50
11989;DHT22;6054;50.966;7.094;2023-01-20T08:20:32;8.90;56.40
11989;DHT22;6054;50.966;7.094;2023-01-20T08:22:59;8.90;56.50
11989;DHT22;6054;50.966;7.094;2023-01-20T08:25:27;8.90;56.40
11989;DHT22;6054;50.966;7.094;2023-01-20T08:27:54;8.90;56.30
11989;DHT22;6054;50.966;7.094;2023-01-20T08:30:20;8.90;56.50
11989;DHT22;6054;50.966;7.094;2023-01-20T08:32:47;8.90;56.20
11989;DHT22;6054;50.966;7.094;2023-01-20T08:35:14;8.90;56.10
11989;DHT22;6054;50.966;7.094;2023-01-20T08:37:41;8.90;56.10
11989;DHT22;6054;50.966;7.094;2023-01-20T08:40:09;9.10;56.30
11989;DHT22;6054;50.966;7.094;2023-01-20T08:42:38;8.90;56.30
11989;DHT22;6054;50.966;7.094;2023-01-20T08:45:06;8.90;56.60
11989;DHT22;6054;50.966;7.094;2023-01-20T08:47:34;8.90;56.60
11989;DHT22;6054;50.966;7.094;2023-01-20T08:50:01;8.90;56.20
11989;DHT22;6054;50.966;7.094;2023-01-20T08:52:29;8.90;56.30
11989;DHT22;6054;50.966;7.094;2023-01-20T08:54:55;8.90;55.90
11989;DHT22;6054;50.966;7.094;2023-01-20T08:57:23;8.90;55.70
11989;DHT22;6054;50.966;7.094;2023-01-20T08:59:52;9.00;55.90
11989;DHT22;6054;50.966;7.094;2023-01-20T09:02:19;9.00;56.00
11989;DHT22;6054;50.966;7.094;2023-01-20T09:04:47;9.20;56.20
11989;DHT22;6054;50.966;7.094;2023-01-20T09:07:15;9.00;55.90
11989;DHT22;6054;50.966;7.094;2023-01-20T09:09:42;9.00;56.00
11989;DHT22;6054;50.966;7.094;2023-01-20T09:12:09;9.20;56.10
11989;DHT22;6054;50.966;7.094;2023-01-20T09:14:36;9.00;56.10
11989;DHT22;6054;50.966;7.094;2023-01-20T09:17:05;9.00;55.80
11989;DHT22;6054;50.966;7.094;2023-01-20T09:19:31;9.00;56.20
11989;DHT22;6054;50.966;7.094;2023-01-20T09:21:58;9.10;56.40
11989;DHT22;6054;50.966;7.094;2023-01-20T09:24:25;9.10;57.10
11989;DHT22;6054;50.966;7.094;2023-01-20T09:26:52;9.20;56.60
11989;DHT22;6054;50.966;7.094;2023-01-20T09:29:19;9.40;56.90
11989;DHT22;6054;50.966;7.094;2023-01-20T09:31:49;9.30;57.10
11989;DHT22;6054;50.966;7.094;2023-01-20T09:34:19;9.30;56.40
11989;DHT22;6054;50.966;7.094;2023-01-20T09:36:50;9.30;55.80
11989;DHT22;6054;50.966;7.094;2023-01-20T09:39:17;9.30;56.00
11989;DHT22;6054;50.966;7.094;2023-01-20T09:42:14;9.30;55.90
11989;DHT22;6054;50.966;7.094;2023-01-20T09:45:08;9.30;56.00
11989;DHT22;6054;50.966;7.094;2023-01-20T09:47:49;9.30;55.80
11989;DHT22;6054;50.966;7.094;2023-01-20T09:50:27;9.30;55.90
11989;DHT22;6054;50.966;7.094;2023-01-20T09:53:37;9.40;56.10
11989;DHT22;6054;50.966;7.094;2023-01-20T09:56:10;9.40;56.20
11989;DHT22;6054;50.966;7.094;2023-01-20T09:58:43;9.50;55.90
11989;DHT22;6054;50.966;7.094;2023-01-20T10:01:14;9.50;56.10
11989;DHT22;6054;50.966;7.094;2023-01-20T10:03:47;9.60;56.30
11989;DHT22;6054;50.966;7.094;2023-01-20T10:06:21;9.60;55.70
11989;DHT22;6054;50.966;7.094;2023-01-20T10:08:58;9.70;55.70
11989;DHT22;6054;50.966;7.094;2023-01-20T10:11:28;9.70;55.50
11989;DHT22;6054;50.966;7.094;2023-01-20T10:14:02;9.70;55.00
11989;DHT22;6054;50.966;7.094;2023-01-20T10:16:33;9.70;54.50
11989;DHT22;6054;50.966;7.094;2023-01-20T10:19:09;9.60;54.50
11989;DHT22;6054;50.966;7.094;2023-01-20T10:21:44;9.60;54.70
11989;DHT22;6054;50.966;7.094;2023-01-20T10:24:17;9.70;54.70
11989;DHT22;6054;50.966;7.094;2023-01-20T10:26:51;9.70;54.40
11989;DHT22;6054;50.966;7.094;2023-01-20T10:29:22;9.70;54.70
11989;DHT22;6054;50.966;7.094;2023-01-20T10:31:58;9.70;54.60
11989;DHT22;6054;50.966;7.094;2023-01-20T10:34:29;10.00;54.00
11989;DHT22;6054;50.966;7.094;2023-01-20T10:37:03;9.70;54.80
11989;DHT22;6054;50.966;7.094;2023-01-20T10:39:37;9.70;54.50
11989;DHT22;6054;50.966;7.094;2023-01-20T10:42:10;9.80;54.80
11989;DHT22;6054;50.966;7.094;2023-01-20T10:44:36;9.80;54.30
11989;DHT22;6054;50.966;7.094;2023-01-20T10:47:15;9.80;54.20
11989;DHT22;6054;50.966;7.094;2023-01-20T10:50:00;9.80;54.70
11989;DHT22;6054;50.966;7.094;2023-01-20T10:55:29;9.80;54.80
11989;DHT22;6054;50.966;7.094;2023-01-20T10:58:03;9.90;54.10
11989;DHT22;6054;50.966;7.094;2023-01-20T11:00:33;9.80;54.10
11989;DHT22;6054;50.966;7.094;2023-01-20T11:03:01;9.90;53.60
11989;DHT22;6054;50.966;7.094;2023-01-20T11:05:34;9.80;53.00
11989;DHT22;6054;50.966;7.094;2023-01-20T11:08:09;9.80;53.60
11989;DHT22;6054;50.966;7.094;2023-01-20T11:10:37;9.90;53.20
11989;DHT22;6054;50.966;7.094;2023-01-20T11:13:04;9.90;53.10
11989;DHT22;6054;50.966;7.094;2023-01-20T11:15:33;9.80;52.40
11989;DHT22;6054;50.966;7.094;2023-01-20T11:18:20;9.80;52.50
11989;DHT22;6054;50.966;7.094;2023-01-20T11:20:49;9.80;53.30
11989;DHT22;6054;50.966;7.094;2023-01-20T11:23:21;9.80;53.30
11989;DHT22;6054;50.966;7.094;2023-01-20T11:25:55;9.80;53.50
11989;DHT22;6054;50.966;7.094;2023-01-20T11:28:22;9.90;53.30
11989;DHT22;6054;50.966;7.094;2023-01-20T11:30:51;9.90;53.30
11989;DHT22;6054;50.966;7.094;2023-01-20T11:33:21;9.90;53.60
11989;DHT22;6054;50.966;7.094;2023-01-20T11:35:59;10.10;53.00
11989;DHT22;6054;50.966;7.094;2023-01-20T11:38:29;9.90;53.70
11989;DHT22;6054;50.966;7.094;2023-01-20T11:40:57;9.90;53.00
11989;DHT22;6054;50.966;7.094;2023-01-20T11:43:28;10.00;52.10
11989;DHT22;6054;50.966;7.094;2023-01-20T11:46:15;10.00;52.80
11989;DHT22;6054;50.966;7.094;2023-01-20T11:48:45;10.00;51.50
11989;DHT22;6054;50.966;7.094;2023-01-20T11:51:20;10.00;51.90
11989;DHT22;6054;50.966;7.094;2023-01-20T11:53:50;10.00;52.80
11989;DHT22;6054;50.966;7.094;2023-01-20T11:56:19;10.10;52.80
11989;DHT22;6054;50.966;7.094;2023-01-20T11:58:50;10.10;52.20
11989;DHT22;6054;50.966;7.094;2023-01-20T12:01:23;10.10;51.90
11989;DHT22;6054;50.966;7.094;2023-01-20T12:04:03;10.10;52.30
11989;DHT22;6054;50.966;7.094;2023-01-20T12:06:40;10.10;52.10
11989;DHT22;6054;50.966;7.094;2023-01-20T12:09:15;10.40;52.70
11989;DHT22;6054;50.966;7.094;2023-01-20T12:11:51;10.20;52.60
11989;DHT22;6054;50.966;7.094;2023-01-20T12:14:22;10.20;52.50
11989;DHT22;6054;50.966;7.094;2023-01-20T12:16:59;10.20;52.20
11989;DHT22;6054;50.966;7.094;2023-01-20T12:19:34;10.30;52.70
11989;DHT22;6054;50.966;7.094;2023-01-20T12:22:10;10.20;52.00
11989;DHT22;6054;50.966;7.094;2023-01-20T12:24:45;10.20;52.20
11989;DHT22;6054;50.966;7.094;2023-01-20T12:27:36;10.20;51.50
11989;DHT22;6054;50.966;7.094;2023-01-20T12:30:15;10.10;51.70
11989;DHT22;6054;50.966;7.094;2023-01-20T12:32:45;10.10;51.20
11989;DHT22;6054;50.966;7.094;2023-01-20T12:35:13;10.00;50.90
11989;DHT22;6054;50.966;7.094;2023-01-20T12:37:44;10.10;51.70
11989;DHT22;6054;50.966;7.094;2023-01-20T12:40:21;10.10;51.80
11989;DHT22;6054;50.966;7.094;2023-01-20T12:43:19;10.10;51.70
11989;DHT22;6054;50.966;7.094;2023-01-20T12:46:14;10.10;51.60
11989;DHT22;6054;50.966;7.094;2023-01-20T12:48:54;10.20;52.10
11989;DHT22;6054;50.966;7.094;2023-01-20T12:51:35;10.20;52.00
11989;DHT22;6054;50.966;7.094;2023-01-20T12:54:32;10.10;51.60
11989;DHT22;6054;50.966;7.094;2023-01-20T12:57:12;10.10;51.70
11989;DHT22;6054;50.966;7.094;2023-01-20T12:59:45;10.10;52.20
11989;DHT22;6054;50.966;7.094;2023-01-20T13:02:38;10.10;51.90
11989;DHT22;6054;50.966;7.094;2023-01-20T13:05:32;10.10;52.00
11989;DHT22;6054;50.966;7.094;2023-01-20T13:08:10;10.10;52.90
11989;DHT22;6054;50.966;7.094;2023-01-20T13:10:53;10.20;52.20
11989;DHT22;6054;50.966;7.094;2023-01-20T13:13:38;10.10;52.20
11989;DHT22;6054;50.966;7.094;2023-01-20T13:16:14;10.10;51.80
11989;DHT22;6054;50.966;7.094;2023-01-20T13:18:55;10.10;51.50
11989;DHT22;6054;50.966;7.094;2023-01-20T13:21:29;10.40;52.10
11989;DHT22;6054;50.966;7.094;2023-01-20T13:23:58;10.20;52.20
11989;DHT22;6054;50.966;7.094;2023-01-20T13:26:26;10.20;52.90
11989;DHT22;6054;50.966;7.094;2023-01-20T13:28:56;10.20;52.40
11989;DHT22;6054;50.966;7.094;2023-01-20T13:31:30;10.20;52.00
11989;DHT22;6054;50.966;7.094;2023-01-20T13:34:32;10.20;52.00
11989;DHT22;6054;50.966;7.094;2023-01-20T13:37:21;10.20;52.40
11989;DHT22;6054;50.966;7.094;2023-01-20T13:39:49;10.20;52.20
11989;DHT22;6054;50.966;7.094;2023-01-20T13:42:29;10.20;52.40
11989;DHT22;6054;50.966;7.094;2023-01-20T13:45:19;10.20;51.60
11989;DHT22;6054;50.966;7.094;2023-01-20T13:47:51;10.20;52.00
11989;DHT22;6054;50.966;7.094;2023-01-20T13:50:23;10.20;52.30
11989;DHT22;6054;50.966;7.094;2023-01-20T13:53:05;10.20;52.10
11989;DHT22;6054;50.966;7.094;2023-01-20T13:55:53;10.20;52.50
11989;DHT22;6054;50.966;7.094;2023-01-20T13:58:22;10.20;52.40
11989;DHT22;6054;50.966;7.094;2023-01-20T14:00:52;10.20;52.30
11989;DHT22;6054;50.966;7.094;2023-01-20T14:03:21;10.10;52.40
11989;DHT22;6054;50.966;7.094;2023-01-20T14:05:49;10.10;52.30
11989;DHT22;6054;50.966;7.094;2023-01-20T14:08:16;10.10;52.40
11989;DHT22;6054;50.966;7.094;2023-01-20T14:10:44;10.10;52.10
11989;DHT22;6054;50.966;7.094;2023-01-20T14:13:14;10.00;51.90
11989;DHT22;6054;50.966;7.094;2023-01-20T14:15:48;10.00;52.30
11989;DHT22;6054;50.966;7.094;2023-01-20T14:18:18;10.00;52.50
11989;DHT22;6054;50.966;7.094;2023-01-20T14:20:57;9.90;53.50
11989;DHT22;6054;50.966;7.094;2023-01-20T14:23:30;9.90;53.50
11989;DHT22;6054;50.966;7.094;2023-01-20T14:25:59;9.90;53.50
11989;DHT22;6054;50.966;7.094;2023-01-20T14:28:26;9.80;53.50
11989;DHT22;6054;50.966;7.094;2023-01-20T14:31:12;9.80;53.30
11989;DHT22;6054;50.966;7.094;2023-01-20T14:33:49;9.80;53.90
11989;DHT22;6054;50.966;7.094;2023-01-20T14:36:18;9.80;54.00
11989;DHT22;6054;50.966;7.094;2023-01-20T14:38:49;10.10;53.40
11989;DHT22;6054;50.966;7.094;2023-01-20T14:41:32;9.80;54.10
11989;DHT22;6054;50.966;7.094;2023-01-20T14:44:00;9.80;53.90
11989;DHT22;6054;50.966;7.094;2023-01-20T14:46:29;10.00;53.30
11989;DHT22;6054;50.966;7.094;2023-01-20T14:48:58;9.80;54.00
11989;DHT22;6054;50.966;7.094;2023-01-20T14:51:25;9.80;54.10
11989;DHT22;6054;50.966;7.094;2023-01-20T14:54:34;9.80;54.10
11989;DHT22;6054;50.966;7.094;2023-01-20T14:57:23;9.80;54.10
11989;DHT22;6054;50.966;7.094;2023-01-20T15:00:12;9.80;55.10
11989;DHT22;6054;50.966;7.094;2023-01-20T15:02:41;9.90;54.50
11989;DHT22;6054;50.966;7.094;2023-01-20T15:05:24;9.80;54.70
11989;DHT22;6054;50.966;7.094;2023-01-20T15:08:21;9.80;54.60
11989;DHT22;6054;50.966;7.094;2023-01-20T15:11:09;9.80;54.60
11989;DHT22;6054;50.966;7.094;2023-01-20T15:13:37;9.80;54.50
11989;DHT22;6054;50.966;7.094;2023-01-20T15:16:15;9.70;55.00
11989;DHT22;6054;50.966;7.094;2023-01-20T15:18:43;9.70;54.50
11989;DHT22;6054;50.966;7.094;2023-01-20T15:21:21;9.70;53.90
11989;DHT22;6054;50.966;7.094;2023-01-20T15:23:51;9.70;54.50
11989;DHT22;6054;50.966;7.094;2023-01-20T15:26:24;9.70;54.10
11989;DHT22;6054;50.966;7.094;2023-01-20T15:28:52;9.70;54.40
11989;DHT22;6054;50.966;7.094;2023-01-20T15:31:19;9.70;54.10
11989;DHT22;6054;50.966;7.094;2023-01-20T15:33:46;9.60;54.00
11989;DHT22;6054;50.966;7.094;2023-01-20T15:36:20;9.60;54.10
11989;DHT22;6054;50.966;7.094;2023-01-20T15:38:48;9.60;54.20
11989;DHT22;6054;50.966;7.094;2023-01-20T15:41:15;9.60;54.30
11989;DHT22;6054;50.966;7.094;2023-01-20T15:43:42;9.60;53.90
11989;DHT22;6054;50.966;7.094;2023-01-20T15:46:10;9.50;53.70
11989;DHT22;6054;50.966;7.094;2023-01-20T15:48:37;9.50;54.20
11989;DHT22;6054;50.966;7.094;2023-01-20T15:51:04;9.50;54.10
11989;DHT22;6054;50.966;7.094;2023-01-20T15:53:33;9.50;53.80
11989;DHT22;6054;50.966;7.094;2023-01-20T15:56:01;9.50;53.70
11989;DHT22;6054;50.966;7.094;2023-01-20T15:58:29;9.80;54.20
11989;DHT22;6054;50.966;7.094;2023-01-20T16:00:57;9.50;54.10
11989;DHT22;6054;50.966;7.094;2023-01-20T16:03:26;9.50;54.20
11989;DHT22;6054;50.966;7.094;2023-01-20T16:05:54;9.40;53.70
11989;DHT22;6054;50.966;7.094;2023-01-20T16:08:22;9.40;53.90
11989;DHT22;6054;50.966;7.094;2023-01-20T16:10:51;9.40;54.00
11989;DHT22;6054;50.966;7.094;2023-01-20T16:13:18;9.40;54.10
11989;DHT22;6054;50.966;7.094;2023-01-20T16:15:45;9.30;53.20
11989;DHT22;6054;50.966;7.094;2023-01-20T16:18:13;9.30;53.30
11989;DHT22;6054;50.966;7.094;2023-01-20T16:20:41;9.50;54.00
11989;DHT22;6054;50.966;7.094;2023-01-20T16:23:09;9.30;54.00
11989;DHT22;6054;50.966;7.094;2023-01-20T16:25:36;9.30;54.00
11989;DHT22;6054;50.966;7.094;2023-01-20T16:28:11;9.60;54.20
11989;DHT22;6054;50.966;7.094;2023-01-20T16:30:39;9.40;53.90